sensor_id;sensor_type;location;lat;lon;timestamp;P1;durP1;ratioP1;P2;durP2;ratioP2
24151;SDS011;12311;50.866;4.332;2024-03-08T00:01:09;23.90;;;7.75;;
24151;SDS011;12311;50.866;4.332;2024-03-08T00:03:35;22.92;;;6.82;;
24151;SDS011;12311;50.866;4.332;2024-03-08T00:06:01;15.50;;;6.50;;
24151;SDS011;12311;50.866;4.332;2024-03-08T00:08:27;21.02;;;7.63;;
24151;SDS011;12311;50.866;4.332;2024-03-08T00:10:53;20.02;;;7.18;;
24151;SDS011;12311;50.866;4.332;2024-03-08T00:13:19;19.92;;;6.30;;
24151;SDS011;12311;50.866;4.332;2024-03-08T00:15:44;22.45;;;7.30;;
24151;SDS011;12311;50.866;4.332;2024-03-08T00:18:10;22.85;;;7.40;;
24151;SDS011;12311;50.866;4.332;2024-03-08T00:20:36;20.40;;;6.30;;
24151;SDS011;12311;50.866;4.332;2024-03-08T00:23:03;19.00;;;7.50;;
24151;SDS011;12311;50.866;4.332;2024-03-08T00:25:29;23.25;;;7.60;;
24151;SDS011;12311;50.866;4.332;2024-03-08T00:27:54;17.67;;;7.05;;
24151;SDS011;12311;50.866;4.332;2024-03-08T00:30:24;22.00;;;7.47;;
24151;SDS011;12311;50.866;4.332;2024-03-08T00:32:50;19.33;;;6.55;;
24151;SDS011;12311;50.866;4.332;2024-03-08T00:35:16;18.70;;;7.03;;
24151;SDS011;12311;50.866;4.332;2024-03-08T00:37:43;20.38;;;6.82;;
24151;SDS011;12311;50.866;4.332;2024-03-08T00:40:12;19.08;;;6.78;;
24151;SDS011;12311;50.866;4.332;2024-03-08T00:42:38;22.42;;;7.40;;
24151;SDS011;12311;50.866;4.332;2024-03-08T00:45:05;16.50;;;6.82;;
24151;SDS011;12311;50.866;4.332;2024-03-08T00:47:30;19.08;;;6.63;;
24151;SDS011;12311;50.866;4.332;2024-03-08T00:49:56;21.42;;;6.53;;
24151;SDS011;12311;50.866;4.332;2024-03-08T00:52:22;15.55;;;5.97;;
24151;SDS011;12311;50.866;4.332;2024-03-08T00:54:49;20.45;;;6.75;;
24151;SDS011;12311;50.866;4.332;2024-03-08T00:57:15;21.00;;;7.20;;
24151;SDS011;12311;50.866;4.332;2024-03-08T00:59:41;21.50;;;6.82;;
24151;SDS011;12311;50.866;4.332;2024-03-08T01:02:07;18.15;;;6.70;;
24151;SDS011;12311;50.866;4.332;2024-03-08T01:04:34;28.45;;;6.68;;
24151;SDS011;12311;50.866;4.332;2024-03-08T01:07:00;20.17;;;7.15;;
24151;SDS011;12311;50.866;4.332;2024-03-08T01:09:27;21.00;;;6.90;;
24151;SDS011;12311;50.866;4.332;2024-03-08T01:11:54;24.63;;;7.85;;
24151;SDS011;12311;50.866;4.332;2024-03-08T01:14:20;21.02;;;6.85;;
24151;SDS011;12311;50.866;4.332;2024-03-08T01:16:47;18.45;;;6.18;;
24151;SDS011;12311;50.866;4.332;2024-03-08T01:19:14;19.20;;;6.32;;
24151;SDS011;12311;50.866;4.332;2024-03-08T01:21:40;22.35;;;7.30;;
24151;SDS011;12311;50.866;4.332;2024-03-08T01:24:06;19.98;;;7.05;;
24151;SDS011;12311;50.866;4.332;2024-03-08T01:26:32;23.17;;;7.13;;
24151;SDS011;12311;50.866;4.332;2024-03-08T01:29:01;20.88;;;6.93;;
24151;SDS011;12311;50.866;4.332;2024-03-08T01:31:28;23.67;;;7.03;;
24151;SDS011;12311;50.866;4.332;2024-03-08T01:33:55;22.35;;;7.70;;
24151;SDS011;12311;50.866;4.332;2024-03-08T01:36:21;20.40;;;7.07;;
24151;SDS011;12311;50.866;4.332;2024-03-08T01:38:47;23.65;;;7.55;;
24151;SDS011;12311;50.866;4.332;2024-03-08T01:41:12;23.80;;;7.30;;
24151;SDS011;12311;50.866;4.332;2024-03-08T01:43:39;21.15;;;6.97;;
24151;SDS011;12311;50.866;4.332;2024-03-08T01:46:04;21.67;;;7.80;;
24151;SDS011;12311;50.866;4.332;2024-03-08T01:48:31;23.65;;;7.68;;
24151;SDS011;12311;50.866;4.332;2024-03-08T01:50:57;21.00;;;7.43;;
24151;SDS011;12311;50.866;4.332;2024-03-08T01:53:26;21.98;;;7.32;;
24151;SDS011;12311;50.866;4.332;2024-03-08T01:55:56;23.05;;;7.40;;
24151;SDS011;12311;50.866;4.332;2024-03-08T01:58:23;22.05;;;7.80;;
24151;SDS011;12311;50.866;4.332;2024-03-08T02:00:49;18.85;;;6.75;;
24151;SDS011;12311;50.866;4.332;2024-03-08T02:03:16;19.63;;;8.00;;
24151;SDS011;12311;50.866;4.332;2024-03-08T02:05:42;22.85;;;7.68;;
24151;SDS011;12311;50.866;4.332;2024-03-08T02:08:10;24.15;;;8.02;;
24151;SDS011;12311;50.866;4.332;2024-03-08T02:10:48;22.55;;;7.50;;
24151;SDS011;12311;50.866;4.332;2024-03-08T02:13:14;22.92;;;8.07;;
24151;SDS011;12311;50.866;4.332;2024-03-08T02:15:50;27.58;;;7.97;;
24151;SDS011;12311;50.866;4.332;2024-03-08T02:18:25;21.85;;;7.85;;
24151;SDS011;12311;50.866;4.332;2024-03-08T02:20:52;23.65;;;8.45;;
24151;SDS011;12311;50.866;4.332;2024-03-08T02:23:22;22.95;;;7.88;;
24151;SDS011;12311;50.866;4.332;2024-03-08T02:25:50;22.67;;;8.82;;
24151;SDS011;12311;50.866;4.332;2024-03-08T02:28:16;24.65;;;8.40;;
24151;SDS011;12311;50.866;4.332;2024-03-08T02:30:51;23.58;;;9.63;;
24151;SDS011;12311;50.866;4.332;2024-03-08T02:33:21;27.23;;;9.02;;
24151;SDS011;12311;50.866;4.332;2024-03-08T02:35:47;25.55;;;8.52;;
24151;SDS011;12311;50.866;4.332;2024-03-08T02:38:17;23.70;;;7.88;;
24151;SDS011;12311;50.866;4.332;2024-03-08T02:40:44;27.50;;;9.10;;
24151;SDS011;12311;50.866;4.332;2024-03-08T02:43:11;23.25;;;8.20;;
24151;SDS011;12311;50.866;4.332;2024-03-08T02:45:38;29.38;;;8.32;;
24151;SDS011;12311;50.866;4.332;2024-03-08T02:48:04;24.38;;;8.45;;
24151;SDS011;12311;50.866;4.332;2024-03-08T02:50:33;23.13;;;8.65;;
24151;SDS011;12311;50.866;4.332;2024-03-08T02:53:04;26.05;;;9.40;;
24151;SDS011;12311;50.866;4.332;2024-03-08T02:55:30;21.48;;;8.18;;
24151;SDS011;12311;50.866;4.332;2024-03-08T02:57:56;23.33;;;8.90;;
24151;SDS011;12311;50.866;4.332;2024-03-08T03:00:22;22.77;;;9.55;;
24151;SDS011;12311;50.866;4.332;2024-03-08T03:02:49;23.75;;;8.65;;
24151;SDS011;12311;50.866;4.332;2024-03-08T03:05:22;23.65;;;8.05;;
24151;SDS011;12311;50.866;4.332;2024-03-08T03:07:48;25.63;;;8.77;;
24151;SDS011;12311;50.866;4.332;2024-03-08T03:10:16;25.33;;;9.23;;
24151;SDS011;12311;50.866;4.332;2024-03-08T03:12:42;25.13;;;9.75;;
24151;SDS011;12311;50.866;4.332;2024-03-08T03:15:10;23.33;;;8.52;;
24151;SDS011;12311;50.866;4.332;2024-03-08T03:17:37;24.42;;;8.85;;
24151;SDS011;12311;50.866;4.332;2024-03-08T03:20:04;29.35;;;9.13;;
24151;SDS011;12311;50.866;4.332;2024-03-08T03:22:36;23.35;;;9.68;;
24151;SDS011;12311;50.866;4.332;2024-03-08T03:25:02;25.63;;;9.25;;
24151;SDS011;12311;50.866;4.332;2024-03-08T03:27:32;26.20;;;9.40;;
24151;SDS011;12311;50.866;4.332;2024-03-08T03:29:57;25.10;;;8.88;;
24151;SDS011;12311;50.866;4.332;2024-03-08T03:32:23;27.27;;;9.45;;
24151;SDS011;12311;50.866;4.332;2024-03-08T03:34:49;27.67;;;9.90;;
24151;SDS011;12311;50.866;4.332;2024-03-08T03:37:21;27.20;;;9.18;;
24151;SDS011;12311;50.866;4.332;2024-03-08T03:39:47;23.75;;;9.25;;
24151;SDS011;12311;50.866;4.332;2024-03-08T03:42:18;30.38;;;10.80;;
24151;SDS011;12311;50.866;4.332;2024-03-08T03:44:47;28.67;;;10.35;;
24151;SDS011;12311;50.866;4.332;2024-03-08T03:47:16;27.35;;;9.98;;
24151;SDS011;12311;50.866;4.332;2024-03-08T03:49:42;31.23;;;9.55;;
24151;SDS011;12311;50.866;4.332;2024-03-08T03:52:08;27.27;;;9.85;;
24151;SDS011;12311;50.866;4.332;2024-03-08T03:54:35;25.60;;;9.73;;
24151;SDS011;12311;50.866;4.332;2024-03-08T03:57:01;23.45;;;9.15;;
24151;SDS011;12311;50.866;4.332;2024-03-08T03:59:27;26.08;;;8.75;;
24151;SDS011;12311;50.866;4.332;2024-03-08T04:01:54;27.70;;;9.52;;
24151;SDS011;12311;50.866;4.332;2024-03-08T04:04:20;25.38;;;9.98;;
24151;SDS011;12311;50.866;4.332;2024-03-08T04:06:46;25.40;;;9.57;;
24151;SDS011;12311;50.866;4.332;2024-03-08T04:09:12;31.50;;;10.18;;
24151;SDS011;12311;50.866;4.332;2024-03-08T04:11:38;24.92;;;10.38;;
24151;SDS011;12311;50.866;4.332;2024-03-08T04:14:04;28.08;;;9.80;;
24151;SDS011;12311;50.866;4.332;2024-03-08T04:16:30;29.33;;;10.18;;
24151;SDS011;12311;50.866;4.332;2024-03-08T04:18:57;29.92;;;10.05;;
24151;SDS011;12311;50.866;4.332;2024-03-08T04:21:23;28.85;;;10.23;;
24151;SDS011;12311;50.866;4.332;2024-03-08T04:23:49;29.17;;;9.45;;
24151;SDS011;12311;50.866;4.332;2024-03-08T04:26:15;26.38;;;10.30;;
24151;SDS011;12311;50.866;4.332;2024-03-08T04:28:40;28.70;;;9.63;;
24151;SDS011;12311;50.866;4.332;2024-03-08T04:31:06;28.77;;;10.57;;
24151;SDS011;12311;50.866;4.332;2024-03-08T04:33:32;28.30;;;9.60;;
24151;SDS011;12311;50.866;4.332;2024-03-08T04:36:00;26.67;;;9.20;;
24151;SDS011;12311;50.866;4.332;2024-03-08T04:38:29;32.08;;;10.23;;
24151;SDS011;12311;50.866;4.332;2024-03-08T04:40:55;26.55;;;9.75;;
24151;SDS011;12311;50.866;4.332;2024-03-08T04:43:22;31.42;;;10.40;;
24151;SDS011;12311;50.866;4.332;2024-03-08T04:45:50;31.58;;;11.13;;
24151;SDS011;12311;50.866;4.332;2024-03-08T04:48:16;30.15;;;10.05;;
24151;SDS011;12311;50.866;4.332;2024-03-08T04:50:42;29.02;;;10.13;;
24151;SDS011;12311;50.866;4.332;2024-03-08T04:53:08;26.70;;;9.80;;
24151;SDS011;12311;50.866;4.332;2024-03-08T04:55:34;26.45;;;9.82;;
24151;SDS011;12311;50.866;4.332;2024-03-08T04:58:00;28.17;;;10.98;;
24151;SDS011;12311;50.866;4.332;2024-03-08T05:00:26;30.52;;;10.32;;
24151;SDS011;12311;50.866;4.332;2024-03-08T05:02:51;31.00;;;10.32;;
24151;SDS011;12311;50.866;4.332;2024-03-08T05:05:18;35.17;;;9.93;;
24151;SDS011;12311;50.866;4.332;2024-03-08T05:07:44;24.60;;;9.68;;
24151;SDS011;12311;50.866;4.332;2024-03-08T05:10:10;24.27;;;9.18;;
24151;SDS011;12311;50.866;4.332;2024-03-08T05:12:36;28.38;;;10.05;;
24151;SDS011;12311;50.866;4.332;2024-03-08T05:15:04;28.67;;;9.90;;
24151;SDS011;12311;50.866;4.332;2024-03-08T05:17:32;24.20;;;9.30;;
24151;SDS011;12311;50.866;4.332;2024-03-08T05:19:57;29.38;;;10.45;;
24151;SDS011;12311;50.866;4.332;2024-03-08T05:22:23;25.52;;;10.10;;
24151;SDS011;12311;50.866;4.332;2024-03-08T05:24:49;25.13;;;9.63;;
24151;SDS011;12311;50.866;4.332;2024-03-08T05:27:15;27.25;;;9.98;;
24151;SDS011;12311;50.866;4.332;2024-03-08T05:29:41;31.35;;;11.20;;
24151;SDS011;12311;50.866;4.332;2024-03-08T05:32:07;29.20;;;10.25;;
24151;SDS011;12311;50.866;4.332;2024-03-08T05:34:32;30.70;;;10.38;;
24151;SDS011;12311;50.866;4.332;2024-03-08T05:36:58;28.63;;;10.73;;
24151;SDS011;12311;50.866;4.332;2024-03-08T05:39:25;30.80;;;11.10;;
24151;SDS011;12311;50.866;4.332;2024-03-08T05:41:50;27.67;;;9.88;;
24151;SDS011;12311;50.866;4.332;2024-03-08T05:44:16;26.80;;;9.10;;
24151;SDS011;12311;50.866;4.332;2024-03-08T05:46:42;27.25;;;10.73;;
24151;SDS011;12311;50.866;4.332;2024-03-08T05:49:08;31.60;;;10.38;;
24151;SDS011;12311;50.866;4.332;2024-03-08T05:51:35;27.10;;;9.77;;
24151;SDS011;12311;50.866;4.332;2024-03-08T05:54:02;23.95;;;9.98;;
24151;SDS011;12311;50.866;4.332;2024-03-08T05:56:35;31.52;;;10.60;;
24151;SDS011;12311;50.866;4.332;2024-03-08T05:59:02;23.58;;;10.27;;
24151;SDS011;12311;50.866;4.332;2024-03-08T06:01:28;30.15;;;10.55;;
24151;SDS011;12311;50.866;4.332;2024-03-08T06:03:54;29.77;;;10.45;;
24151;SDS011;12311;50.866;4.332;2024-03-08T06:06:21;27.95;;;9.80;;
24151;SDS011;12311;50.866;4.332;2024-03-08T06:08:50;26.50;;;9.68;;
24151;SDS011;12311;50.866;4.332;2024-03-08T06:11:16;28.35;;;10.27;;
24151;SDS011;12311;50.866;4.332;2024-03-08T06:13:43;24.10;;;8.98;;
24151;SDS011;12311;50.866;4.332;2024-03-08T06:16:09;24.35;;;9.05;;
24151;SDS011;12311;50.866;4.332;2024-03-08T06:18:35;30.13;;;10.57;;
24151;SDS011;12311;50.866;4.332;2024-03-08T06:21:07;26.00;;;9.25;;
24151;SDS011;12311;50.866;4.332;2024-03-08T06:23:37;29.95;;;10.30;;
24151;SDS011;12311;50.866;4.332;2024-03-08T06:26:12;32.72;;;10.07;;
24151;SDS011;12311;50.866;4.332;2024-03-08T06:28:38;26.80;;;9.93;;
24151;SDS011;12311;50.866;4.332;2024-03-08T06:31:03;30.88;;;9.75;;
24151;SDS011;12311;50.866;4.332;2024-03-08T06:33:30;26.02;;;9.48;;
24151;SDS011;12311;50.866;4.332;2024-03-08T06:35:57;26.35;;;9.02;;
24151;SDS011;12311;50.866;4.332;2024-03-08T06:38:23;36.55;;;9.63;;
24151;SDS011;12311;50.866;4.332;2024-03-08T06:40:50;29.23;;;10.70;;
24151;SDS011;12311;50.866;4.332;2024-03-08T06:43:16;32.30;;;11.10;;
24151;SDS011;12311;50.866;4.332;2024-03-08T06:45:43;26.73;;;9.95;;
24151;SDS011;12311;50.866;4.332;2024-03-08T06:48:18;27.13;;;10.65;;
24151;SDS011;12311;50.866;4.332;2024-03-08T06:50:44;29.15;;;10.40;;
24151;SDS011;12311;50.866;4.332;2024-03-08T06:53:11;36.13;;;9.52;;
24151;SDS011;12311;50.866;4.332;2024-03-08T06:55:37;29.10;;;9.10;;
24151;SDS011;12311;50.866;4.332;2024-03-08T06:58:03;26.15;;;8.75;;
24151;SDS011;12311;50.866;4.332;2024-03-08T07:00:28;30.35;;;9.95;;
24151;SDS011;12311;50.866;4.332;2024-03-08T07:02:55;30.92;;;10.25;;
24151;SDS011;12311;50.866;4.332;2024-03-08T07:05:25;33.05;;;10.43;;
24151;SDS011;12311;50.866;4.332;2024-03-08T07:07:52;27.13;;;9.43;;
24151;SDS011;12311;50.866;4.332;2024-03-08T07:10:19;29.15;;;9.75;;
24151;SDS011;12311;50.866;4.332;2024-03-08T07:12:45;27.65;;;9.57;;
24151;SDS011;12311;50.866;4.332;2024-03-08T07:15:11;28.08;;;10.20;;
24151;SDS011;12311;50.866;4.332;2024-03-08T07:17:41;22.92;;;9.07;;
24151;SDS011;12311;50.866;4.332;2024-03-08T07:20:09;27.25;;;9.68;;
24151;SDS011;12311;50.866;4.332;2024-03-08T07:22:37;26.33;;;9.85;;
24151;SDS011;12311;50.866;4.332;2024-03-08T07:25:06;23.80;;;8.98;;
24151;SDS011;12311;50.866;4.332;2024-03-08T07:27:32;24.50;;;8.88;;
24151;SDS011;12311;50.866;4.332;2024-03-08T07:30:01;26.48;;;9.18;;
24151;SDS011;12311;50.866;4.332;2024-03-08T07:32:29;29.98;;;10.45;;
24151;SDS011;12311;50.866;4.332;2024-03-08T07:34:56;22.83;;;8.63;;
24151;SDS011;12311;50.866;4.332;2024-03-08T07:37:22;27.75;;;9.43;;
24151;SDS011;12311;50.866;4.332;2024-03-08T07:39:48;29.50;;;9.35;;
24151;SDS011;12311;50.866;4.332;2024-03-08T07:42:14;25.60;;;9.88;;
24151;SDS011;12311;50.866;4.332;2024-03-08T07:44:41;26.45;;;8.02;;
24151;SDS011;12311;50.866;4.332;2024-03-08T07:47:08;25.00;;;9.30;;
24151;SDS011;12311;50.866;4.332;2024-03-08T07:49:35;22.75;;;9.18;;
24151;SDS011;12311;50.866;4.332;2024-03-08T07:52:02;26.83;;;9.40;;
24151;SDS011;12311;50.866;4.332;2024-03-08T07:54:32;23.67;;;8.48;;
24151;SDS011;12311;50.866;4.332;2024-03-08T07:57:00;25.33;;;9.23;;
24151;SDS011;12311;50.866;4.332;2024-03-08T07:59:28;26.30;;;8.98;;
24151;SDS011;12311;50.866;4.332;2024-03-08T08:01:54;27.77;;;8.65;;
24151;SDS011;12311;50.866;4.332;2024-03-08T08:04:20;27.67;;;8.93;;
24151;SDS011;12311;50.866;4.332;2024-03-08T08:06:49;29.63;;;9.02;;
24151;SDS011;12311;50.866;4.332;2024-03-08T08:09:16;25.15;;;9.50;;
24151;SDS011;12311;50.866;4.332;2024-03-08T08:11:53;25.95;;;8.88;;
24151;SDS011;12311;50.866;4.332;2024-03-08T08:14:22;28.52;;;9.52;;
24151;SDS011;12311;50.866;4.332;2024-03-08T08:16:47;23.60;;;8.48;;
24151;SDS011;12311;50.866;4.332;2024-03-08T08:19:15;21.38;;;8.05;;
24151;SDS011;12311;50.866;4.332;2024-03-08T08:21:41;24.92;;;8.50;;
24151;SDS011;12311;50.866;4.332;2024-03-08T08:24:07;21.73;;;8.00;;
24151;SDS011;12311;50.866;4.332;2024-03-08T08:26:32;26.90;;;8.57;;
24151;SDS011;12311;50.866;4.332;2024-03-08T08:28:59;23.92;;;8.27;;
24151;SDS011;12311;50.866;4.332;2024-03-08T08:31:25;24.45;;;8.38;;
24151;SDS011;12311;50.866;4.332;2024-03-08T08:33:51;25.05;;;8.48;;
24151;SDS011;12311;50.866;4.332;2024-03-08T08:36:23;23.95;;;9.10;;
24151;SDS011;12311;50.866;4.332;2024-03-08T08:38:54;21.85;;;8.63;;
24151;SDS011;12311;50.866;4.332;2024-03-08T08:41:21;22.80;;;8.88;;
24151;SDS011;12311;50.866;4.332;2024-03-08T08:43:51;22.17;;;8.25;;
24151;SDS011;12311;50.866;4.332;2024-03-08T08:46:17;24.10;;;9.43;;
24151;SDS011;12311;50.866;4.332;2024-03-08T08:48:43;21.27;;;8.10;;
24151;SDS011;12311;50.866;4.332;2024-03-08T08:51:10;27.80;;;8.43;;
24151;SDS011;12311;50.866;4.332;2024-03-08T08:53:40;27.17;;;10.15;;
24151;SDS011;12311;50.866;4.332;2024-03-08T08:56:11;24.42;;;9.13;;
24151;SDS011;12311;50.866;4.332;2024-03-08T08:58:41;23.77;;;8.85;;
24151;SDS011;12311;50.866;4.332;2024-03-08T09:01:10;24.35;;;9.32;;
24151;SDS011;12311;50.866;4.332;2024-03-08T09:03:36;23.00;;;8.82;;
24151;SDS011;12311;50.866;4.332;2024-03-08T09:06:08;27.95;;;8.27;;
24151;SDS011;12311;50.866;4.332;2024-03-08T09:08:38;22.73;;;7.70;;
24151;SDS011;12311;50.866;4.332;2024-03-08T09:11:04;23.33;;;8.50;;
24151;SDS011;12311;50.866;4.332;2024-03-08T09:13:30;24.70;;;8.30;;
24151;SDS011;12311;50.866;4.332;2024-03-08T09:15:56;18.75;;;8.32;;
24151;SDS011;12311;50.866;4.332;2024-03-08T09:18:22;25.08;;;7.97;;
24151;SDS011;12311;50.866;4.332;2024-03-08T09:20:49;19.20;;;6.90;;
24151;SDS011;12311;50.866;4.332;2024-03-08T09:23:16;23.10;;;8.88;;
24151;SDS011;12311;50.866;4.332;2024-03-08T09:25:44;19.95;;;8.10;;
24151;SDS011;12311;50.866;4.332;2024-03-08T09:28:11;23.35;;;7.82;;
24151;SDS011;12311;50.866;4.332;2024-03-08T09:30:40;21.23;;;7.90;;
24151;SDS011;12311;50.866;4.332;2024-03-08T09:33:06;22.25;;;7.60;;
24151;SDS011;12311;50.866;4.332;2024-03-08T09:35:32;21.40;;;7.72;;
24151;SDS011;12311;50.866;4.332;2024-03-08T09:37:58;21.40;;;8.30;;
24151;SDS011;12311;50.866;4.332;2024-03-08T09:40:24;21.55;;;8.20;;
24151;SDS011;12311;50.866;4.332;2024-03-08T09:42:50;18.70;;;7.28;;
24151;SDS011;12311;50.866;4.332;2024-03-08T09:45:17;20.50;;;7.03;;
24151;SDS011;12311;50.866;4.332;2024-03-08T09:47:47;24.63;;;7.80;;
24151;SDS011;12311;50.866;4.332;2024-03-08T09:50:16;20.90;;;7.25;;
24151;SDS011;12311;50.866;4.332;2024-03-08T09:52:43;21.05;;;7.40;;
24151;SDS011;12311;50.866;4.332;2024-03-08T09:55:12;21.92;;;8.25;;
24151;SDS011;12311;50.866;4.332;2024-03-08T09:57:39;19.58;;;8.00;;
24151;SDS011;12311;50.866;4.332;2024-03-08T10:00:05;21.23;;;7.93;;
24151;SDS011;12311;50.866;4.332;2024-03-08T10:02:46;23.65;;;8.13;;
24151;SDS011;12311;50.866;4.332;2024-03-08T10:05:13;16.65;;;7.47;;
24151;SDS011;12311;50.866;4.332;2024-03-08T10:07:39;18.90;;;7.13;;
24151;SDS011;12311;50.866;4.332;2024-03-08T10:10:05;22.55;;;8.43;;
24151;SDS011;12311;50.866;4.332;2024-03-08T10:12:34;22.00;;;8.48;;
24151;SDS011;12311;50.866;4.332;2024-03-08T10:15:00;19.92;;;7.63;;
24151;SDS011;12311;50.866;4.332;2024-03-08T10:17:26;22.10;;;7.80;;
24151;SDS011;12311;50.866;4.332;2024-03-08T10:19:57;22.40;;;6.85;;
24151;SDS011;12311;50.866;4.332;2024-03-08T10:22:24;18.52;;;7.68;;
24151;SDS011;12311;50.866;4.332;2024-03-08T10:24:51;19.40;;;7.97;;
24151;SDS011;12311;50.866;4.332;2024-03-08T10:27:17;18.30;;;7.65;;
24151;SDS011;12311;50.866;4.332;2024-03-08T10:29:46;16.20;;;7.50;;
24151;SDS011;12311;50.866;4.332;2024-03-08T10:32:13;21.02;;;7.97;;
24151;SDS011;12311;50.866;4.332;2024-03-08T10:34:40;16.83;;;7.18;;
24151;SDS011;12311;50.866;4.332;2024-03-08T10:37:07;19.05;;;7.45;;
24151;SDS011;12311;50.866;4.332;2024-03-08T10:39:38;16.42;;;7.00;;
24151;SDS011;12311;50.866;4.332;2024-03-08T10:42:13;17.45;;;7.18;;
24151;SDS011;12311;50.866;4.332;2024-03-08T10:44:49;18.92;;;7.75;;
24151;SDS011;12311;50.866;4.332;2024-03-08T10:47:29;19.65;;;8.43;;
24151;SDS011;12311;50.866;4.332;2024-03-08T10:50:04;18.05;;;7.70;;
24151;SDS011;12311;50.866;4.332;2024-03-08T10:52:38;16.63;;;7.57;;
24151;SDS011;12311;50.866;4.332;2024-03-08T10:55:04;21.52;;;8.20;;
24151;SDS011;12311;50.866;4.332;2024-03-08T10:57:37;19.02;;;7.55;;
24151;SDS011;12311;50.866;4.332;2024-03-08T11:00:06;22.35;;;7.60;;
24151;SDS011;12311;50.866;4.332;2024-03-08T11:02:36;21.92;;;7.43;;
24151;SDS011;12311;50.866;4.332;2024-03-08T11:05:03;18.75;;;8.38;;
24151;SDS011;12311;50.866;4.332;2024-03-08T11:07:33;15.65;;;6.95;;
24151;SDS011;12311;50.866;4.332;2024-03-08T11:10:03;19.63;;;8.70;;
24151;SDS011;12311;50.866;4.332;2024-03-08T11:12:38;18.02;;;7.78;;
24151;SDS011;12311;50.866;4.332;2024-03-08T11:15:11;20.63;;;7.82;;
24151;SDS011;12311;50.866;4.332;2024-03-08T11:20:14;22.02;;;7.80;;
24151;SDS011;12311;50.866;4.332;2024-03-08T11:23:01;16.40;;;7.22;;
24151;SDS011;12311;50.866;4.332;2024-03-08T11:25:30;18.33;;;8.05;;
24151;SDS011;12311;50.866;4.332;2024-03-08T11:28:14;20.42;;;8.10;;
24151;SDS011;12311;50.866;4.332;2024-03-08T11:33:30;19.33;;;8.57;;
24151;SDS011;12311;50.866;4.332;2024-03-08T11:36:11;18.90;;;7.60;;
24151;SDS011;12311;50.866;4.332;2024-03-08T11:38:44;17.98;;;8.10;;
24151;SDS011;12311;50.866;4.332;2024-03-08T11:41:17;19.60;;;7.75;;
24151;SDS011;12311;50.866;4.332;2024-03-08T11:43:47;18.30;;;8.40;;
24151;SDS011;12311;50.866;4.332;2024-03-08T11:46:14;22.38;;;7.93;;
24151;SDS011;12311;50.866;4.332;2024-03-08T11:48:42;16.40;;;8.05;;
24151;SDS011;12311;50.866;4.332;2024-03-08T11:51:09;17.63;;;8.30;;
24151;SDS011;12311;50.866;4.332;2024-03-08T11:53:37;15.63;;;7.80;;
24151;SDS011;12311;50.866;4.332;2024-03-08T11:56:10;26.42;;;8.15;;
24151;SDS011;12311;50.866;4.332;2024-03-08T11:58:37;17.48;;;8.77;;
24151;SDS011;12311;50.866;4.332;2024-03-08T12:01:07;19.85;;;8.05;;
24151;SDS011;12311;50.866;4.332;2024-03-08T12:03:43;17.63;;;7.65;;
24151;SDS011;12311;50.866;4.332;2024-03-08T12:06:09;17.17;;;7.45;;
24151;SDS011;12311;50.866;4.332;2024-03-08T12:08:40;19.63;;;8.07;;
24151;SDS011;12311;50.866;4.332;2024-03-08T12:11:06;21.05;;;8.38;;
24151;SDS011;12311;50.866;4.332;2024-03-08T12:13:33;17.45;;;7.68;;
24151;SDS011;12311;50.866;4.332;2024-03-08T12:16:03;18.80;;;7.68;;
24151;SDS011;12311;50.866;4.332;2024-03-08T12:18:32;15.35;;;7.90;;
24151;SDS011;12311;50.866;4.332;2024-03-08T12:21:09;20.10;;;8.20;;
24151;SDS011;12311;50.866;4.332;2024-03-08T12:23:36;20.23;;;8.15;;
24151;SDS011;12311;50.866;4.332;2024-03-08T12:26:16;17.52;;;8.18;;
24151;SDS011;12311;50.866;4.332;2024-03-08T12:28:49;20.10;;;8.25;;
24151;SDS011;12311;50.866;4.332;2024-03-08T12:31:18;18.63;;;7.57;;
24151;SDS011;12311;50.866;4.332;2024-03-08T12:36:24;16.92;;;7.45;;
24151;SDS011;12311;50.866;4.332;2024-03-08T12:38:50;17.80;;;7.70;;
24151;SDS011;12311;50.866;4.332;2024-03-08T12:41:16;17.20;;;8.20;;
24151;SDS011;12311;50.866;4.332;2024-03-08T12:43:44;16.05;;;7.70;;
24151;SDS011;12311;50.866;4.332;2024-03-08T12:46:14;17.48;;;7.72;;
24151;SDS011;12311;50.866;4.332;2024-03-08T12:48:40;15.95;;;7.70;;
24151;SDS011;12311;50.866;4.332;2024-03-08T12:51:06;18.55;;;7.90;;
24151;SDS011;12311;50.866;4.332;2024-03-08T12:53:33;16.02;;;7.07;;
24151;SDS011;12311;50.866;4.332;2024-03-08T12:55:59;17.98;;;7.60;;
24151;SDS011;12311;50.866;4.332;2024-03-08T12:58:25;18.83;;;8.25;;
24151;SDS011;12311;50.866;4.332;2024-03-08T13:00:51;16.63;;;7.43;;
24151;SDS011;12311;50.866;4.332;2024-03-08T13:03:17;17.73;;;7.50;;
24151;SDS011;12311;50.866;4.332;2024-03-08T13:05:43;16.17;;;7.00;;
24151;SDS011;12311;50.866;4.332;2024-03-08T13:08:09;16.02;;;7.28;;
24151;SDS011;12311;50.866;4.332;2024-03-08T13:10:38;16.85;;;7.50;;
24151;SDS011;12311;50.866;4.332;2024-03-08T13:13:04;15.00;;;7.47;;
24151;SDS011;12311;50.866;4.332;2024-03-08T13:15:30;17.88;;;7.07;;
24151;SDS011;12311;50.866;4.332;2024-03-08T13:17:56;13.95;;;7.57;;
24151;SDS011;12311;50.866;4.332;2024-03-08T13:20:25;19.38;;;7.28;;
24151;SDS011;12311;50.866;4.332;2024-03-08T13:22:53;15.63;;;7.50;;
24151;SDS011;12311;50.866;4.332;2024-03-08T13:25:19;14.73;;;7.28;;
24151;SDS011;12311;50.866;4.332;2024-03-08T13:27:45;19.30;;;7.97;;
24151;SDS011;12311;50.866;4.332;2024-03-08T13:30:12;15.43;;;7.18;;
24151;SDS011;12311;50.866;4.332;2024-03-08T13:32:42;17.70;;;7.10;;
24151;SDS011;12311;50.866;4.332;2024-03-08T13:35:09;15.43;;;7.40;;
24151;SDS011;12311;50.866;4.332;2024-03-08T13:37:40;17.25;;;7.30;;
24151;SDS011;12311;50.866;4.332;2024-03-08T13:40:07;16.67;;;7.43;;
24151;SDS011;12311;50.866;4.332;2024-03-08T13:42:44;17.10;;;8.07;;
24151;SDS011;12311;50.866;4.332;2024-03-08T13:45:14;15.55;;;6.90;;
24151;SDS011;12311;50.866;4.332;2024-03-08T13:47:43;19.88;;;7.80;;
24151;SDS011;12311;50.866;4.332;2024-03-08T13:50:10;19.40;;;7.78;;
24151;SDS011;12311;50.866;4.332;2024-03-08T13:52:46;13.18;;;6.68;;
24151;SDS011;12311;50.866;4.332;2024-03-08T13:55:17;15.93;;;7.57;;
24151;SDS011;12311;50.866;4.332;2024-03-08T13:57:43;12.30;;;6.50;;
24151;SDS011;12311;50.866;4.332;2024-03-08T14:00:10;18.27;;;7.10;;
24151;SDS011;12311;50.866;4.332;2024-03-08T14:02:37;15.60;;;6.70;;
24151;SDS011;12311;50.866;4.332;2024-03-08T14:05:09;15.20;;;7.28;;
24151;SDS011;12311;50.866;4.332;2024-03-08T14:07:36;15.82;;;7.30;;
24151;SDS011;12311;50.866;4.332;2024-03-08T14:10:02;15.00;;;6.63;;
24151;SDS011;12311;50.866;4.332;2024-03-08T14:12:28;17.85;;;7.20;;
24151;SDS011;12311;50.866;4.332;2024-03-08T14:14:54;14.98;;;7.22;;
24151;SDS011;12311;50.866;4.332;2024-03-08T14:17:24;20.33;;;7.43;;
24151;SDS011;12311;50.866;4.332;2024-03-08T14:19:53;17.80;;;7.13;;
24151;SDS011;12311;50.866;4.332;2024-03-08T14:22:26;16.38;;;7.07;;
24151;SDS011;12311;50.866;4.332;2024-03-08T14:24:52;16.30;;;6.80;;
24151;SDS011;12311;50.866;4.332;2024-03-08T14:27:20;13.75;;;6.75;;
24151;SDS011;12311;50.866;4.332;2024-03-08T14:29:47;16.08;;;7.50;;
24151;SDS011;12311;50.866;4.332;2024-03-08T14:32:13;16.55;;;6.82;;
24151;SDS011;12311;50.866;4.332;2024-03-08T14:34:39;16.48;;;7.40;;
24151;SDS011;12311;50.866;4.332;2024-03-08T14:37:05;18.10;;;8.20;;
24151;SDS011;12311;50.866;4.332;2024-03-08T14:39:36;19.50;;;8.23;;
24151;SDS011;12311;50.866;4.332;2024-03-08T14:42:04;15.27;;;7.03;;
24151;SDS011;12311;50.866;4.332;2024-03-08T14:44:31;14.38;;;7.32;;